sensor_id;sensor_type;location;lat;lon;timestamp;pressure;altitude;pressure_sealevel;temperature;humidity
18850;BME280;4989;48.772;9.154;2023-02-10T00:00:43;99857.25;;;2.40;91.36
18850;BME280;4989;48.772;9.154;2023-02-10T00:05:45;99847.81;;;2.72;91.34
18850;BME280;4989;48.772;9.154;2023-02-10T00:10:48;99852.50;;;2.37;81.55
18850;BME280;4989;48.772;9.154;2023-02-10T00:15:51;99844.38;;;1.90;83.19
18850;BME280;4989;48.772;9.154;2023-02-10T00:20:54;99840.75;;;1.86;91.30
18850;BME280;4989;48.772;9.154;2023-02-10T00:25:56;99843.72;;;3.04;100.00
18850;BME280;4989;48.772;9.154;2023-02-10T00:30:59;99832.25;;;2.48;100.00
18850;BME280;4989;48.772;9.154;2023-02-10T00:36:06;99842.41;;;3.10;97.31
18850;BME280;4989;48.772;9.154;2023-02-10T00:41:15;99853.09;;;2.51;83.45
18850;BME280;4989;48.772;9.154;2023-02-10T00:46:19;99859.78;;;2.74;98.22
18850;BME280;4989;48.772;9.154;2023-02-10T00:51:22;99859.69;;;3.72;100.00
18850;BME280;4989;48.772;9.154;2023-02-10T00:56:25;99867.91;;;3.55;98.54
18850;BME280;4989;48.772;9.154;2023-02-10T01:01:28;99870.69;;;2.22;96.09
18850;BME280;4989;48.772;9.154;2023-02-10T01:06:30;99873.06;;;1.63;85.12
18850;BME280;4989;48.772;9.154;2023-02-10T01:11:33;99866.75;;;3.05;100.00
18850;BME280;4989;48.772;9.154;2023-02-10T01:16:37;99861.41;;;3.77;100.00
18850;BME280;4989;48.772;9.154;2023-02-10T01:21:43;99860.69;;;3.67;100.00
18850;BME280;4989;48.772;9.154;2023-02-10T01:26:46;99869.50;;;2.58;92.26
18850;BME280;4989;48.772;9.154;2023-02-10T01:31:48;99878.63;;;2.57;100.00
18850;BME280;4989;48.772;9.154;2023-02-10T01:36:51;99878.44;;;1.80;94.10
18850;BME280;4989;48.772;9.154;2023-02-10T01:41:53;99877.38;;;2.63;100.00
18850;BME280;4989;48.772;9.154;2023-02-10T01:46:57;99862.38;;;3.01;99.53
18850;BME280;4989;48.772;9.154;2023-02-10T01:52:22;99863.25;;;3.13;100.00
18850;BME280;4989;48.772;9.154;2023-02-10T01:57:25;99873.66;;;2.29;94.60
18850;BME280;4989;48.772;9.154;2023-02-10T02:02:29;99880.63;;;1.96;97.83
18850;BME280;4989;48.772;9.154;2023-02-10T02:07:36;99895.47;;;2.02;96.09
18850;BME280;4989;48.772;9.154;2023-02-10T02:12:59;99884.59;;;2.07;99.80
18850;BME280;4989;48.772;9.154;2023-02-10T02:18:12;99887.72;;;2.18;100.00
18850;BME280;4989;48.772;9.154;2023-02-10T02:35:37;99899.63;;;1.16;99.60
18850;BME280;4989;48.772;9.154;2023-02-10T02:40:41;99902.03;;;1.44;100.00
18850;BME280;4989;48.772;9.154;2023-02-10T02:51:15;99912.66;;;1.57;100.00
18850;BME280;4989;48.772;9.154;2023-02-10T02:56:34;99912.13;;;2.51;100.00
18850;BME280;4989;48.772;9.154;2023-02-10T03:01:54;99912.44;;;3.35;100.00
18850;BME280;4989;48.772;9.154;2023-02-10T03:06:58;99910.28;;;1.73;100.00
18850;BME280;4989;48.772;9.154;2023-02-10T03:12:00;99913.84;;;0.85;100.00
18850;BME280;4989;48.772;9.154;2023-02-10T03:17:03;99908.25;;;0.42;100.00
18850;BME280;4989;48.772;9.154;2023-02-10T03:22:06;99906.00;;;0.35;100.00
18850;BME280;4989;48.772;9.154;2023-02-10T03:27:08;99909.34;;;1.03;100.00
18850;BME280;4989;48.772;9.154;2023-02-10T03:32:11;99913.44;;;0.69;100.00
18850;BME280;4989;48.772;9.154;2023-02-10T03:37:13;99917.19;;;-0.21;100.00
18850;BME280;4989;48.772;9.154;2023-02-10T03:42:16;99924.56;;;-0.27;100.00
18850;BME280;4989;48.772;9.154;2023-02-10T03:47:18;99930.94;;;-0.51;100.00
18850;BME280;4989;48.772;9.154;2023-02-10T03:52:21;99934.97;;;-0.53;100.00
18850;BME280;4989;48.772;9.154;2023-02-10T03:57:23;99936.38;;;-0.42;100.00
18850;BME280;4989;48.772;9.154;2023-02-10T04:02:26;99935.66;;;0.25;100.00
18850;BME280;4989;48.772;9.154;2023-02-10T04:07:28;99939.50;;;-0.26;100.00
18850;BME280;4989;48.772;9.154;2023-02-10T04:12:31;99929.59;;;-0.39;100.00
18850;BME280;4989;48.772;9.154;2023-02-10T04:17:34;99935.50;;;-0.15;100.00
18850;BME280;4989;48.772;9.154;2023-02-10T04:22:37;99941.97;;;0.07;100.00
18850;BME280;4989;48.772;9.154;2023-02-10T04:27:39;99929.53;;;-0.48;100.00
18850;BME280;4989;48.772;9.154;2023-02-10T04:32:41;99939.44;;;0.47;100.00
18850;BME280;4989;48.772;9.154;2023-02-10T04:37:44;99946.56;;;-0.08;100.00
18850;BME280;4989;48.772;9.154;2023-02-10T04:42:46;99954.56;;;-0.58;100.00
18850;BME280;4989;48.772;9.154;2023-02-10T04:47:49;99949.44;;;-0.68;100.00
18850;BME280;4989;48.772;9.154;2023-02-10T04:52:51;99949.78;;;0.39;100.00
18850;BME280;4989;48.772;9.154;2023-02-10T04:57:54;99952.53;;;0.12;100.00
18850;BME280;4989;48.772;9.154;2023-02-10T05:02:56;99955.69;;;0.36;100.00
18850;BME280;4989;48.772;9.154;2023-02-10T05:07:59;99954.78;;;1.26;100.00
18850;BME280;4989;48.772;9.154;2023-02-10T05:13:01;99959.19;;;2.14;100.00
18850;BME280;4989;48.772;9.154;2023-02-10T05:18:04;99971.81;;;2.13;100.00
18850;BME280;4989;48.772;9.154;2023-02-10T05:23:06;99973.22;;;0.65;100.00
18850;BME280;4989;48.772;9.154;2023-02-10T05:28:09;99976.69;;;-0.43;100.00
18850;BME280;4989;48.772;9.154;2023-02-10T05:33:11;99978.19;;;-0.65;100.00
18850;BME280;4989;48.772;9.154;2023-02-10T05:38:14;99975.19;;;-0.22;100.00
18850;BME280;4989;48.772;9.154;2023-02-10T05:43:16;99977.31;;;-0.60;100.00
18850;BME280;4989;48.772;9.154;2023-02-10T05:48:19;99984.03;;;-0.63;100.00
18850;BME280;4989;48.772;9.154;2023-02-10T05:53:21;99983.81;;;-0.94;100.00
18850;BME280;4989;48.772;9.154;2023-02-10T05:58:24;99988.38;;;-0.81;100.00
18850;BME280;4989;48.772;9.154;2023-02-10T06:03:27;99997.25;;;-0.99;100.00
18850;BME280;4989;48.772;9.154;2023-02-10T06:08:29;100004.88;;;-0.93;100.00
18850;BME280;4989;48.772;9.154;2023-02-10T06:13:32;100014.22;;;-1.09;100.00
18850;BME280;4989;48.772;9.154;2023-02-10T06:18:35;100017.56;;;-1.17;100.00
18850;BME280;4989;48.772;9.154;2023-02-10T06:23:37;100026.56;;;-1.13;100.00
18850;BME280;4989;48.772;9.154;2023-02-10T06:28:40;100027.97;;;-1.02;100.00
18850;BME280;4989;48.772;9.154;2023-02-10T06:33:42;100033.88;;;-1.38;100.00
18850;BME280;4989;48.772;9.154;2023-02-10T06:38:45;100044.44;;;-0.67;100.00
18850;BME280;4989;48.772;9.154;2023-02-10T06:43:49;100042.09;;;-1.01;100.00
18850;BME280;4989;48.772;9.154;2023-02-10T06:48:53;100052.97;;;-0.98;100.00
18850;BME280;4989;48.772;9.154;2023-02-10T06:53:56;100057.41;;;-0.60;100.00
18850;BME280;4989;48.772;9.154;2023-02-10T06:58:58;100068.28;;;-0.57;100.00
18850;BME280;4989;48.772;9.154;2023-02-10T07:04:01;100071.44;;;-0.68;100.00
18850;BME280;4989;48.772;9.154;2023-02-10T07:09:04;100073.84;;;-0.26;100.00
18850;BME280;4989;48.772;9.154;2023-02-10T07:14:07;100073.66;;;1.16;100.00
18850;BME280;4989;48.772;9.154;2023-02-10T07:19:09;100064.66;;;1.43;100.00
18850;BME280;4989;48.772;9.154;2023-02-10T07:24:12;100067.56;;;2.04;100.00
18850;BME280;4989;48.772;9.154;2023-02-10T07:29:14;100075.28;;;2.05;100.00
18850;BME280;4989;48.772;9.154;2023-02-10T07:34:17;100076.53;;;2.08;100.00
18850;BME280;4989;48.772;9.154;2023-02-10T07:39:23;100076.59;;;1.68;100.00
18850;BME280;4989;48.772;9.154;2023-02-10T07:44:26;100088.88;;;2.26;100.00
18850;BME280;4989;48.772;9.154;2023-02-10T07:49:29;100096.34;;;2.82;100.00
18850;BME280;4989;48.772;9.154;2023-02-10T07:54:31;100087.00;;;2.36;100.00
18850;BME280;4989;48.772;9.154;2023-02-10T07:59:34;100082.13;;;2.55;100.00
18850;BME280;4989;48.772;9.154;2023-02-10T08:04:37;100075.03;;;2.77;100.00
18850;BME280;4989;48.772;9.154;2023-02-10T08:09:39;100077.53;;;2.99;100.00
18850;BME280;4989;48.772;9.154;2023-02-10T08:14:42;100075.72;;;3.38;100.00
18850;BME280;4989;48.772;9.154;2023-02-10T08:19:44;100083.16;;;3.24;98.67
18850;BME280;4989;48.772;9.154;2023-02-10T08:24:47;100094.28;;;2.61;93.71
18850;BME280;4989;48.772;9.154;2023-02-10T08:29:49;100087.97;;;2.57;96.30
18850;BME280;4989;48.772;9.154;2023-02-10T08:34:54;100094.31;;;2.79;97.59
18850;BME280;4989;48.772;9.154;2023-02-10T08:39:57;100094.91;;;3.10;100.00
18850;BME280;4989;48.772;9.154;2023-02-10T08:45:00;100100.84;;;3.42;100.00
18850;BME280;4989;48.772;9.154;2023-02-10T08:50:04;100095.25;;;3.56;93.38
18850;BME280;4989;48.772;9.154;2023-02-10T08:55:07;100095.63;;;3.84;100.00
18850;BME280;4989;48.772;9.154;2023-02-10T09:00:10;100101.75;;;4.23;80.97
18850;BME280;4989;48.772;9.154;2023-02-10T09:05:13;100103.13;;;3.99;79.83
18850;BME280;4989;48.772;9.154;2023-02-10T09:10:17;100094.69;;;3.80;78.07
18850;BME280;4989;48.772;9.154;2023-02-10T09:15:19;100097.91;;;3.64;79.22
18850;BME280;4989;48.772;9.154;2023-02-10T09:20:22;100092.72;;;4.27;80.08
18850;BME280;4989;48.772;9.154;2023-02-10T09:25:24;100093.75;;;4.77;78.80
18850;BME280;4989;48.772;9.154;2023-02-10T09:30:27;100088.56;;;5.38;88.29
18850;BME280;4989;48.772;9.154;2023-02-10T09:35:30;100095.63;;;6.78;72.96
18850;BME280;4989;48.772;9.154;2023-02-10T09:40:37;100096.50;;;6.54;73.01
18850;BME280;4989;48.772;9.154;2023-02-10T09:45:47;100096.94;;;6.43;69.33
18850;BME280;4989;48.772;9.154;2023-02-10T09:56:25;100098.06;;;6.55;67.49
18850;BME280;4989;48.772;9.154;2023-02-10T10:01:39;100094.03;;;7.49;65.55
18850;BME280;4989;48.772;9.154;2023-02-10T10:06:48;100082.34;;;7.61;67.54
18850;BME280;4989;48.772;9.154;2023-02-10T10:11:53;100079.53;;;8.75;62.40
18850;BME280;4989;48.772;9.154;2023-02-10T10:33:00;100088.31;;;9.30;65.34
18850;BME280;4989;48.772;9.154;2023-02-10T10:38:27;100081.56;;;9.44;64.70
18850;BME280;4989;48.772;9.154;2023-02-10T10:43:34;100088.53;;;8.60;62.22
18850;BME280;4989;48.772;9.154;2023-02-10T10:48:43;100089.69;;;8.43;66.71
18850;BME280;4989;48.772;9.154;2023-02-10T10:53:48;100083.00;;;8.95;80.70
18850;BME280;4989;48.772;9.154;2023-02-10T10:58:51;100069.38;;;10.06;61.73
18850;BME280;4989;48.772;9.154;2023-02-10T11:04:06;100064.22;;;11.63;56.09
18850;BME280;4989;48.772;9.154;2023-02-10T11:09:34;100061.78;;;11.51;57.52
18850;BME280;4989;48.772;9.154;2023-02-10T11:14:43;100057.75;;;10.96;57.76
18850;BME280;4989;48.772;9.154;2023-02-10T11:19:59;100060.94;;;11.46;60.09
18850;BME280;4989;48.772;9.154;2023-02-10T11:25:37;100065.88;;;13.67;56.64
18850;BME280;4989;48.772;9.154;2023-02-10T11:30:37;100061.34;;;16.37;41.60
18850;BME280;4989;48.772;9.154;2023-02-10T11:35:49;100067.19;;;18.49;42.40
18850;BME280;4989;48.772;9.154;2023-02-10T11:40:58;100061.84;;;19.67;35.26
18850;BME280;4989;48.772;9.154;2023-02-10T11:46:05;100056.97;;;20.04;33.68
18850;BME280;4989;48.772;9.154;2023-02-10T11:51:16;100056.34;;;20.84;31.71
18850;BME280;4989;48.772;9.154;2023-02-10T11:56:45;100061.41;;;20.72;30.86
18850;BME280;4989;48.772;9.154;2023-02-10T12:02:18;100060.88;;;20.90;30.21
18850;BME280;4989;48.772;9.154;2023-02-10T12:07:44;100047.09;;;20.19;31.33
18850;BME280;4989;48.772;9.154;2023-02-10T12:18:39;100041.94;;;18.30;33.25
18850;BME280;4989;48.772;9.154;2023-02-10T12:29:28;100028.97;;;16.56;36.41
18850;BME280;4989;48.772;9.154;2023-02-10T12:40:28;100026.06;;;13.77;38.01
18850;BME280;4989;48.772;9.154;2023-02-10T12:56:23;100003.63;;;16.07;40.87
18850;BME280;4989;48.772;9.154;2023-02-10T13:01:33;99998.47;;;15.29;39.90
18850;BME280;4989;48.772;9.154;2023-02-10T13:06:41;99987.84;;;13.38;39.64
18850;BME280;4989;48.772;9.154;2023-02-10T13:17:27;99993.34;;;14.72;40.16
18850;BME280;4989;48.772;9.154;2023-02-10T13:22:53;99993.94;;;14.24;38.34
18850;BME280;4989;48.772;9.154;2023-02-10T13:28:27;99992.13;;;15.85;38.37
18850;BME280;4989;48.772;9.154;2023-02-10T13:38:40;99999.25;;;15.26;37.10
18850;BME280;4989;48.772;9.154;2023-02-10T13:43:44;100006.47;;;12.86;38.80
18850;BME280;4989;48.772;9.154;2023-02-10T13:48:55;100002.44;;;11.22;44.35
18850;BME280;4989;48.772;9.154;2023-02-10T13:53:58;100003.66;;;10.91;46.26
18850;BME280;4989;48.772;9.154;2023-02-10T14:09:33;100007.81;;;10.44;53.46
18850;BME280;4989;48.772;9.154;2023-02-10T14:14:38;100005.75;;;10.07;51.32
18850;BME280;4989;48.772;9.154;2023-02-10T14:19:43;99998.66;;;9.99;50.94
18850;BME280;4989;48.772;9.154;2023-02-10T14:24:46;100004.41;;;9.68;52.36
18850;BME280;4989;48.772;9.154;2023-02-10T14:30:05;100001.16;;;9.58;52.12
18850;BME280;4989;48.772;9.154;2023-02-10T14:35:21;100000.88;;;9.63;51.85
18850;BME280;4989;48.772;9.154;2023-02-10T14:40:32;100004.81;;;9.43;53.08
18850;BME280;4989;48.772;9.154;2023-02-10T14:45:34;100001.69;;;9.41;53.52
18850;BME280;4989;48.772;9.154;2023-02-10T14:50:41;100009.50;;;9.46;54.32
18850;BME280;4989;48.772;9.154;2023-02-10T14:55:57;100005.19;;;9.42;54.49
18850;BME280;4989;48.772;9.154;2023-02-10T15:01:05;100006.94;;;9.30;56.81
18850;BME280;4989;48.772;9.154;2023-02-10T15:06:16;100006.44;;;9.25;51.54
18850;BME280;4989;48.772;9.154;2023-02-10T15:11:49;100004.56;;;9.29;55.82
18850;BME280;4989;48.772;9.154;2023-02-10T15:17:27;100001.13;;;8.66;49.71
18850;BME280;4989;48.772;9.154;2023-02-10T15:22:37;100004.50;;;8.40;54.31
18850;BME280;4989;48.772;9.154;2023-02-10T15:27:43;99999.59;;;8.65;52.30
18850;BME280;4989;48.772;9.154;2023-02-10T15:32:52;99993.44;;;8.68;54.27
18850;BME280;4989;48.772;9.154;2023-02-10T15:38:02;99999.00;;;8.76;54.78
18850;BME280;4989;48.772;9.154;2023-02-10T15:43:27;99995.34;;;8.87;57.09
18850;BME280;4989;48.772;9.154;2023-02-10T15:48:30;99987.53;;;8.86;57.70
18850;BME280;4989;48.772;9.154;2023-02-10T15:53:40;99985.00;;;8.74;58.10
18850;BME280;4989;48.772;9.154;2023-02-10T15:58:42;99985.69;;;8.32;52.83
18850;BME280;4989;48.772;9.154;2023-02-10T16:03:44;99978.41;;;8.16;69.31
18850;BME280;4989;48.772;9.154;2023-02-10T16:08:46;99991.28;;;7.68;55.56
18850;BME280;4989;48.772;9.154;2023-02-10T16:13:49;99985.56;;;7.22;60.22
18850;BME280;4989;48.772;9.154;2023-02-10T16:18:51;99996.97;;;6.84;56.58
18850;BME280;4989;48.772;9.154;2023-02-10T16:23:53;99992.66;;;6.39;57.25
18850;BME280;4989;48.772;9.154;2023-02-10T16:28:56;99997.84;;;6.32;64.81
18850;BME280;4989;48.772;9.154;2023-02-10T16:33:58;99994.88;;;6.09;58.02
18850;BME280;4989;48.772;9.154;2023-02-10T16:39:01;99994.66;;;5.89;59.27
18850;BME280;4989;48.772;9.154;2023-02-10T16:44:04;99996.47;;;5.85;58.86
18850;BME280;4989;48.772;9.154;2023-02-10T16:49:07;100001.94;;;6.13;81.69
18850;BME280;4989;48.772;9.154;2023-02-10T16:54:09;100007.03;;;6.43;59.73
18850;BME280;4989;48.772;9.154;2023-02-10T16:59:17;100013.53;;;5.89;61.39
18850;BME280;4989;48.772;9.154;2023-02-10T17:04:20;100020.28;;;5.59;60.85
18850;BME280;4989;48.772;9.154;2023-02-10T17:09:24;100030.31;;;5.58;62.92
18850;BME280;4989;48.772;9.154;2023-02-10T17:14:27;100021.66;;;5.53;68.21
18850;BME280;4989;48.772;9.154;2023-02-10T17:19:30;100031.22;;;5.99;75.93
18850;BME280;4989;48.772;9.154;2023-02-10T17:24:35;100026.72;;;6.43;66.44
18850;BME280;4989;48.772;9.154;2023-02-10T17:29:38;100022.47;;;6.02;63.11
18850;BME280;4989;48.772;9.154;2023-02-10T17:34:41;100027.28;;;5.84;78.37
18850;BME280;4989;48.772;9.154;2023-02-10T17:39:43;100026.38;;;5.56;65.96
18850;BME280;4989;48.772;9.154;2023-02-10T17:44:46;100030.31;;;5.58;66.78
18850;BME280;4989;48.772;9.154;2023-02-10T17:49:49;100029.97;;;5.72;68.15
18850;BME280;4989;48.772;9.154;2023-02-10T17:54:51;100041.09;;;5.83;72.65
18850;BME280;4989;48.772;9.154;2023-02-10T17:59:54;100042.13;;;6.03;69.03
18850;BME280;4989;48.772;9.154;2023-02-10T18:04:56;100042.31;;;5.36;68.98
18850;BME280;4989;48.772;9.154;2023-02-10T18:09:59;100054.00;;;5.53;74.91
18850;BME280;4989;48.772;9.154;2023-02-10T18:15:01;100054.47;;;5.91;75.73
18850;BME280;4989;48.772;9.154;2023-02-10T18:20:04;100061.00;;;5.90;85.43
18850;BME280;4989;48.772;9.154;2023-02-10T18:25:07;100053.59;;;5.63;70.88
18850;BME280;4989;48.772;9.154;2023-02-10T18:30:13;100064.38;;;5.63;72.09
18850;BME280;4989;48.772;9.154;2023-02-10T18:35:16;100062.00;;;5.61;69.95
18850;BME280;4989;48.772;9.154;2023-02-10T18:40:18;100074.91;;;5.56;73.59
18850;BME280;4989;48.772;9.154;2023-02-10T18:45:21;100073.31;;;5.30;65.18
18850;BME280;4989;48.772;9.154;2023-02-10T18:50:24;100077.22;;;4.66;67.43
18850;BME280;4989;48.772;9.154;2023-02-10T18:55:27;100085.63;;;4.44;70.19
18850;BME280;4989;48.772;9.154;2023-02-10T19:00:30;100079.19;;;4.36;67.82
18850;BME280;4989;48.772;9.154;2023-02-10T19:05:33;100080.28;;;4.35;75.93
18850;BME280;4989;48.772;9.154;2023-02-10T19:10:36;100077.88;;;4.42;75.05
18850;BME280;4989;48.772;9.154;2023-02-10T19:15:39;100077.53;;;4.44;74.60
18850;BME280;4989;48.772;9.154;2023-02-10T19:20:51;100084.03;;;4.22;68.83
18850;BME280;4989;48.772;9.154;2023-02-10T19:25:54;100080.13;;;3.81;69.97
18850;BME280;4989;48.772;9.154;2023-02-10T19:31:01;100073.09;;;3.97;76.23
18850;BME280;4989;48.772;9.154;2023-02-10T19:36:08;100085.22;;;4.12;74.75
18850;BME280;4989;48.772;9.154;2023-02-10T19:41:14;100081.56;;;4.38;72.21
18850;BME280;4989;48.772;9.154;2023-02-10T19:46:21;100086.84;;;3.96;69.98
18850;BME280;4989;48.772;9.154;2023-02-10T19:51:26;100077.00;;;3.79;72.36
18850;BME280;4989;48.772;9.154;2023-02-10T19:56:29;100073.81;;;3.77;80.72
18850;BME280;4989;48.772;9.154;2023-02-10T20:01:32;100078.19;;;4.20;80.74
18850;BME280;4989;48.772;9.154;2023-02-10T20:06:38;100067.88;;;4.22;80.87
18850;BME280;4989;48.772;9.154;2023-02-10T20:11:41;100077.41;;;4.40;73.58
18850;BME280;4989;48.772;9.154;2023-02-10T20:16:45;100074.31;;;4.29;82.24
18850;BME280;4989;48.772;9.154;2023-02-10T20:21:48;100065.28;;;4.34;84.51
18850;BME280;4989;48.772;9.154;2023-02-10T20:26:50;100063.66;;;4.75;80.38
18850;BME280;4989;48.772;9.154;2023-02-10T20:31:53;100057.22;;;4.88;78.83
18850;BME280;4989;48.772;9.154;2023-02-10T20:36:56;100056.56;;;4.91;76.68
18850;BME280;4989;48.772;9.154;2023-02-10T20:42:00;100061.84;;;4.67;71.72
18850;BME280;4989;48.772;9.154;2023-02-10T20:47:02;100070.13;;;4.62;82.45
18850;BME280;4989;48.772;9.154;2023-02-10T20:52:05;100063.84;;;4.57;77.45
18850;BME280;4989;48.772;9.154;2023-02-10T20:57:09;100058.56;;;4.40;76.28
18850;BME280;4989;48.772;9.154;2023-02-10T21:02:12;100051.28;;;3.60;71.19
18850;BME280;4989;48.772;9.154;2023-02-10T21:07:15;100040.13;;;3.41;72.67
18850;BME280;4989;48.772;9.154;2023-02-10T21:12:18;100044.09;;;3.35;72.93
18850;BME280;4989;48.772;9.154;2023-02-10T21:17:22;100040.06;;;3.58;74.34
18850;BME280;4989;48.772;9.154;2023-02-10T21:22:24;100049.72;;;3.89;96.93
18850;BME280;4989;48.772;9.154;2023-02-10T21:27:27;100046.84;;;3.94;82.46
18850;BME280;4989;48.772;9.154;2023-02-10T21:32:31;100040.91;;;3.41;73.68
18850;BME280;4989;48.772;9.154;2023-02-10T21:37:34;100045.13;;;3.13;76.07
18850;BME280;4989;48.772;9.154;2023-02-10T21:42:36;100053.03;;;3.56;81.08
18850;BME280;4989;48.772;9.154;2023-02-10T21:47:39;100036.72;;;3.14;76.75
18850;BME280;4989;48.772;9.154;2023-02-10T21:52:42;100034.41;;;3.04;77.47
18850;BME280;4989;48.772;9.154;2023-02-10T21:57:44;100040.41;;;2.92;77.43
18850;BME280;4989;48.772;9.154;2023-02-10T22:02:47;100027.91;;;3.05;79.72
18850;BME280;4989;48.772;9.154;2023-02-10T22:07:49;100029.81;;;2.96;77.62
18850;BME280;4989;48.772;9.154;2023-02-10T22:12:52;100007.81;;;3.20;74.13
18850;BME280;4989;48.772;9.154;2023-02-10T22:17:54;100003.78;;;3.73;90.45
18850;BME280;4989;48.772;9.154;2023-02-10T22:22:57;100008.84;;;3.45;76.64
18850;BME280;4989;48.772;9.154;2023-02-10T22:28:00;100009.81;;;3.32;77.04
18850;BME280;4989;48.772;9.154;2023-02-10T22:33:02;100012.22;;;3.25;90.65
18850;BME280;4989;48.772;9.154;2023-02-10T22:38:05;100012.78;;;2.92;77.22
18850;BME280;4989;48.772;9.154;2023-02-10T22:43:08;100007.06;;;3.79;100.00
18850;BME280;4989;48.772;9.154;2023-02-10T22:48:11;100009.69;;;3.28;80.45
18850;BME280;4989;48.772;9.154;2023-02-10T22:53:14;99996.31;;;3.02;78.20
18850;BME280;4989;48.772;9.154;2023-02-10T22:58:17;100012.31;;;2.81;79.85
18850;BME280;4989;48.772;9.154;2023-02-10T23:03:19;100013.38;;;3.15;97.98
18850;BME280;4989;48.772;9.154;2023-02-10T23:08:21;100012.38;;;3.19;82.38
18850;BME280;4989;48.772;9.154;2023-02-10T23:13:24;100010.38;;;2.99;78.04
18850;BME280;4989;48.772;9.154;2023-02-10T23:18:28;99997.94;;;2.86;80.86
18850;BME280;4989;48.772;9.154;2023-02-10T23:23:30;100015.34;;;2.80;77.09
18850;BME280;4989;48.772;9.154;2023-02-10T23:28:33;100012.81;;;2.57;77.60
18850;BME280;4989;48.772;9.154;2023-02-10T23:33:36;100010.09;;;2.92;82.29
18850;BME280;4989;48.772;9.154;2023-02-10T23:38:39;100010.75;;;3.95;98.03
18850;BME280;4989;48.772;9.154;2023-02-10T23:43:41;100001.53;;;4.80;100.00
18850;BME280;4989;48.772;9.154;2023-02-10T23:48:43;100005.50;;;4.62;79.57
18850;BME280;4989;48.772;9.154;2023-02-10T23:53:47;100013.38;;;3.83;77.93
18850;BME280;4989;48.772;9.154;2023-02-10T23:58:51;100025.81;;;3.19;79.29
